Umm Salal — 9HA2682 — position and weather

sailwx.info

Track history (hours):
 
Tides and Currents Weather Stations Pressure Air Temp Water Temp Dewpoint Dewpoint Depression Visibility Wind Speed Wind Dir Waves Ship Positions

Umm Salal

Last reported at 2018-Feb-16 08:13 UTC. Time now 2018-Feb-18 19:44 UTC.
Position N 24°29' E 119°13'.

Length 366 m; draft 10.4 m.

Type: Ship (hazmat cat A). MMSI: 215237000.

Date/timePositionNaut miles runAvg speedWind from/ knotsBaromVisibWave heightAir tempDewpointWater temp
2018-Feb-16 08:13N 24°29' E 119°13'1219.0
2018-Feb-16 07:35N 24°21' E 119°03'418.9
2018-Feb-16 07:22N 24°18' E 118°59'718.9
2018-Feb-16 07:00N 24°14' E 118°54'2118.2
2018-Feb-16 05:52N 24°01' E 118°36'717.8
2018-Feb-16 05:30N 23°56' E 118°30'2318.0
2018-Feb-16 04:14N 23°41' E 118°12'418.5
2018-Feb-16 04:00N 23°39' E 118°08'1018.8
2018-Feb-16 03:30N 23°32' E 118°01'919.3
2018-Feb-16 03:00N 23°27' E 117°52'1019.7
2018-Feb-16 02:30N 23°22' E 117°43'1019.8
2018-Feb-16 02:00N 23°17' E 117°33'1019.5
2018-Feb-16 01:30N 23°11' E 117°25'  
2018-Feb-12 19:18N 22°60' E 117°05'517.3
2018-Feb-12 19:00N 23°03' E 117°10'917.4
2018-Feb-12 18:30N 23°08' E 117°17'917.7
2018-Feb-12 18:00N 23°13' E 117°24'917.6
2018-Feb-12 17:30N 23°20' E 117°31'917.6
2018-Feb-12 17:00N 23°26' E 117°38'917.3
2018-Feb-12 16:30N 23°31' E 117°45'917.0
2018-Feb-12 16:00N 23°36' E 117°53'917.1
2018-Feb-12 15:30N 23°42' E 117°60'916.9
2018-Feb-12 14:59N 23°47' E 118°07'816.8
2018-Feb-12 14:29N 23°52' E 118°15'816.4
2018-Feb-12 13:58N 23°57' E 118°23'1016.5
2018-Feb-12 13:23N 24°03' E 118°31'716.3
2018-Feb-12 12:57N 24°07' E 118°37'818.3
2018-Feb-12 12:30N 24°11' E 118°45'1218.3
2018-Feb-12 11:51N 24°17' E 118°56'717.9
2018-Feb-12 11:28N 24°21' E 119°02'1017.9
2018-Feb-12 10:54N 24°27' E 119°12'717.8
2018-Feb-12 10:30N 24°32' E 119°17'1018.0
2018-Feb-12 09:58N 24°38' E 119°25'  
2018-Feb-08 09:00N 41°20' E 140°17'1818.1
2018-Feb-08 08:00N 41°30' E 140°37'918.4
2018-Feb-08 07:30N 41°35' E 140°47'3417.1
2018-Feb-08 05:30N 41°40' E 141°33'  
Track history (hours):
 
Tides and Currents Weather Stations Pressure Air Temp Water Temp Dewpoint Dewpoint Depression Visibility Wind Speed Wind Dir Waves Ship Positions

Umm Salal

Last reported at 2018-Feb-16 08:13 UTC. Time now 2018-Feb-18 19:44 UTC.
Position N 24°29' E 119°13'.

Length 366 m; draft 10.4 m.

Type: Ship (hazmat cat A). MMSI: 215237000.

Date/timePositionNaut miles runAvg speedWind from/ knotsBaromVisibWave heightAir tempDewpointWater temp
2018-Feb-16 08:13N 24°29' E 119°13'1219.0
2018-Feb-16 07:35N 24°21' E 119°03'418.9
2018-Feb-16 07:22N 24°18' E 118°59'718.9
2018-Feb-16 07:00N 24°14' E 118°54'2118.2
2018-Feb-16 05:52N 24°01' E 118°36'717.8
2018-Feb-16 05:30N 23°56' E 118°30'2318.0
2018-Feb-16 04:14N 23°41' E 118°12'418.5
2018-Feb-16 04:00N 23°39' E 118°08'1018.8
2018-Feb-16 03:30N 23°32' E 118°01'919.3
2018-Feb-16 03:00N 23°27' E 117°52'1019.7
2018-Feb-16 02:30N 23°22' E 117°43'1019.8
2018-Feb-16 02:00N 23°17' E 117°33'1019.5
2018-Feb-16 01:30N 23°11' E 117°25'  
2018-Feb-12 19:18N 22°60' E 117°05'517.3
2018-Feb-12 19:00N 23°03' E 117°10'917.4
2018-Feb-12 18:30N 23°08' E 117°17'917.7
2018-Feb-12 18:00N 23°13' E 117°24'917.6
2018-Feb-12 17:30N 23°20' E 117°31'917.6
2018-Feb-12 17:00N 23°26' E 117°38'917.3
2018-Feb-12 16:30N 23°31' E 117°45'917.0
2018-Feb-12 16:00N 23°36' E 117°53'917.1
2018-Feb-12 15:30N 23°42' E 117°60'916.9
2018-Feb-12 14:59N 23°47' E 118°07'816.8
2018-Feb-12 14:29N 23°52' E 118°15'816.4
2018-Feb-12 13:58N 23°57' E 118°23'1016.5
2018-Feb-12 13:23N 24°03' E 118°31'716.3
2018-Feb-12 12:57N 24°07' E 118°37'818.3
2018-Feb-12 12:30N 24°11' E 118°45'1218.3
2018-Feb-12 11:51N 24°17' E 118°56'717.9
2018-Feb-12 11:28N 24°21' E 119°02'1017.9
2018-Feb-12 10:54N 24°27' E 119°12'717.8
2018-Feb-12 10:30N 24°32' E 119°17'1018.0
2018-Feb-12 09:58N 24°38' E 119°25'  
2018-Feb-08 09:00N 41°20' E 140°17'1818.1
2018-Feb-08 08:00N 41°30' E 140°37'918.4
2018-Feb-08 07:30N 41°35' E 140°47'3417.1
2018-Feb-08 05:30N 41°40' E 141°33'  

Dump ship's entire track history